createdAt,value
2018-09-01T00:01:44.433Z,98906.83
2018-09-01T00:04:13.933Z,98905.95
2018-09-01T00:06:44.204Z,98906.44
2018-09-01T00:09:14.258Z,98905.83
2018-09-01T00:11:43.638Z,98908.56
2018-09-01T00:14:13.010Z,98901.31
2018-09-01T00:16:42.479Z,98900.78
2018-09-01T00:19:11.882Z,98902.97
2018-09-01T00:21:41.355Z,98904.11
2018-09-01T00:24:11.385Z,98904.48
2018-09-01T00:26:42.964Z,98916.24
2018-09-01T00:29:12.425Z,98917.44
2018-09-01T00:31:42.357Z,98918.52
2018-09-01T00:34:11.816Z,98923.78
2018-09-01T00:36:41.240Z,98926.73
2018-09-01T00:39:10.635Z,98923.00
2018-09-01T00:41:40.606Z,98925.30
2018-09-01T00:44:10.025Z,98919.64
2018-09-01T00:46:39.533Z,98923.09
2018-09-01T00:49:08.941Z,98925.63
2018-09-01T00:51:38.445Z,98927.31
2018-09-01T00:54:07.867Z,98926.20
2018-09-01T00:56:37.307Z,98923.45
2018-09-01T00:59:08.824Z,98925.27
2018-09-01T01:01:38.184Z,98920.01
2018-09-01T01:04:07.613Z,98920.02
2018-09-01T01:06:37.527Z,98921.53
2018-09-01T01:09:07.689Z,98914.64
2018-09-01T01:11:37.042Z,98918.91
2018-09-01T01:14:06.527Z,98912.88
2018-09-01T01:16:35.997Z,98920.62
2018-09-01T01:19:05.420Z,98924.92
2018-09-01T01:21:36.142Z,98921.84
2018-09-01T01:24:05.659Z,98922.05
2018-09-01T01:26:35.123Z,98919.61
2018-09-01T01:29:04.541Z,98919.95
2018-09-01T01:31:33.917Z,98917.55
2018-09-01T01:34:03.901Z,98919.06
2018-09-01T01:36:33.343Z,98915.00
2018-09-01T01:39:02.822Z,98913.39
2018-09-01T01:41:32.267Z,98918.67
2018-09-01T01:44:01.699Z,98930.22
2018-09-01T01:46:32.138Z,98924.18
2018-09-01T01:49:01.577Z,98924.18
2018-09-01T01:51:30.976Z,98921.61
2018-09-01T01:54:01.074Z,98921.31
2018-09-01T01:56:30.467Z,98924.95
2018-09-01T01:58:59.850Z,98920.58
2018-09-01T02:01:29.273Z,98922.74
2018-09-01T02:03:58.832Z,98925.06
2018-09-01T02:06:28.855Z,98924.30
2018-09-01T02:08:58.647Z,98924.11
2018-09-01T02:11:28.149Z,98923.02
2018-09-01T02:13:57.545Z,98922.19
2018-09-01T02:16:26.941Z,98925.52
2018-09-01T02:18:56.343Z,98919.92
2018-09-01T02:21:25.758Z,98926.13
2018-09-01T02:23:56.320Z,98926.01
2018-09-01T02:26:26.472Z,98929.95
2018-09-01T02:28:55.876Z,98928.07
2018-09-01T02:31:25.244Z,98936.45
2018-09-01T02:33:54.703Z,98933.21
2018-09-01T02:36:24.177Z,98935.46
2018-09-01T02:38:53.625Z,98932.53
2018-09-01T02:41:23.056Z,98934.66
2018-09-01T02:43:52.470Z,98938.31
2018-09-01T02:46:21.864Z,98942.26
2018-09-01T02:48:51.346Z,98945.37
2018-09-01T02:51:20.683Z,98944.39
2018-09-01T02:53:50.091Z,98950.26
2018-09-01T02:56:20.017Z,98952.58
2018-09-01T02:58:49.420Z,98957.99
2018-09-01T03:01:23.886Z,98961.15
2018-09-01T03:03:53.366Z,98966.67
2018-09-01T03:06:22.778Z,98967.16
2018-09-01T03:08:52.145Z,98970.45
2018-09-01T03:11:21.578Z,98972.24
2018-09-01T03:13:51.004Z,98967.34
2018-09-01T03:16:20.391Z,98966.53
2018-09-01T03:18:49.807Z,98967.02
2018-09-01T03:21:19.761Z,98960.67
2018-09-01T03:23:49.731Z,98964.27
2018-09-01T03:26:19.128Z,98967.70
2018-09-01T03:28:48.598Z,98970.96
2018-09-01T03:31:18.027Z,98976.21
2018-09-01T03:33:48.422Z,98974.60
2018-09-01T03:36:18.342Z,98978.54
2018-09-01T03:38:48.280Z,98975.93
2018-09-01T03:41:17.818Z,98985.30
2018-09-01T03:43:47.413Z,98978.28
2018-09-01T03:46:16.847Z,98984.67
2018-09-01T03:48:46.297Z,98982.25
2018-09-01T03:51:15.676Z,98991.42
2018-09-01T03:53:47.388Z,98993.70
2018-09-01T03:56:16.781Z,98991.09
2018-09-01T03:58:46.293Z,98995.35
2018-09-01T04:01:15.775Z,98994.37
2018-09-01T04:03:45.220Z,98994.53
2018-09-01T04:06:14.585Z,98989.78
2018-09-01T04:08:44.064Z,98988.81
2018-09-01T04:11:13.524Z,98981.59
2018-09-01T04:13:42.909Z,98995.02
2018-09-01T04:16:12.308Z,98998.16
2018-09-01T04:18:42.408Z,98992.58
2018-09-01T04:21:11.870Z,98995.20
2018-09-01T04:23:41.284Z,99000.59
2018-09-01T04:26:10.739Z,99002.72
2018-09-01T04:28:40.144Z,99008.13
2018-09-01T04:31:16.809Z,99001.59
2018-09-01T04:33:46.255Z,98991.30
2018-09-01T04:36:15.676Z,98997.02
2018-09-01T04:38:45.112Z,98992.94
2018-09-01T04:41:14.614Z,98995.37
2018-09-01T04:43:44.585Z,98998.33
2018-09-01T04:46:14.014Z,99002.27
2018-09-01T04:48:43.483Z,99004.21
2018-09-01T04:51:12.909Z,99005.69
2018-09-01T04:53:42.355Z,99006.17
2018-09-01T04:56:11.773Z,99006.48
2018-09-01T04:58:41.160Z,99010.09
2018-09-01T05:01:10.780Z,99005.97
2018-09-01T05:03:40.066Z,99005.83
2018-09-01T05:06:09.481Z,99010.70
2018-09-01T05:08:38.819Z,99005.34
2018-09-01T05:11:08.783Z,99011.70
2018-09-01T05:13:38.216Z,99011.88
2018-09-01T05:16:07.706Z,99019.72
2018-09-01T05:18:37.253Z,99017.27
2018-09-01T05:21:06.680Z,99022.50
2018-09-01T05:23:36.145Z,99023.48
2018-09-01T05:26:05.543Z,99018.24
2018-09-01T05:28:34.997Z,99018.23
2018-09-01T05:31:04.473Z,99018.89
2018-09-01T05:33:33.977Z,99014.00
2018-09-01T05:36:03.406Z,99017.10
2018-09-01T05:38:32.764Z,99012.38
2018-09-01T05:41:02.141Z,99017.27
2018-09-01T05:43:32.130Z,99016.30
2018-09-01T05:46:01.488Z,99021.84
2018-09-01T05:48:30.849Z,99020.87
2018-09-01T05:51:00.315Z,99022.52
2018-09-01T05:53:29.724Z,99022.20
2018-09-01T05:55:59.128Z,99026.28
2018-09-01T05:58:28.573Z,99032.64
2018-09-01T06:00:58.021Z,99026.44
2018-09-01T06:03:28.408Z,99028.41
2018-09-01T06:05:57.900Z,99029.55
2018-09-01T06:08:27.325Z,99017.94
2018-09-01T06:10:56.706Z,99026.76
2018-09-01T06:13:26.170Z,99028.73
2018-09-01T06:15:55.627Z,99025.80
2018-09-01T06:18:25.104Z,99027.44
2018-09-01T06:20:54.520Z,99031.37
2018-09-01T06:23:23.920Z,99037.24
2018-09-01T06:25:53.340Z,99033.14
2018-09-01T06:28:26.572Z,99040.66
2018-09-01T06:30:56.722Z,99029.71
2018-09-01T06:33:26.212Z,99032.81
2018-09-01T06:35:55.686Z,99027.24
2018-09-01T06:38:25.111Z,99030.98
2018-09-01T06:40:54.539Z,99030.98
2018-09-01T06:43:24.053Z,99034.23
2018-09-01T06:45:53.542Z,99026.52
2018-09-01T06:48:23.027Z,99026.70
2018-09-01T06:50:52.414Z,99029.28
2018-09-01T06:53:21.791Z,99030.73
2018-09-01T06:55:51.699Z,99027.13
2018-09-01T06:58:21.131Z,99030.72
2018-09-01T07:00:50.543Z,99028.72
2018-09-01T07:03:20.028Z,99027.58
2018-09-01T07:05:49.437Z,99033.77
2018-09-01T07:08:19.443Z,99034.23
2018-09-01T07:10:48.880Z,99032.41
2018-09-01T07:13:18.275Z,99033.02
2018-09-01T07:15:47.708Z,99030.53
2018-09-01T07:18:17.167Z,99038.36
2018-09-01T07:20:47.497Z,99045.67
2018-09-01T07:23:16.901Z,99052.19
2018-09-01T07:25:46.402Z,99052.64
2018-09-01T07:28:15.879Z,99056.83
2018-09-01T07:30:45.586Z,99055.97
2018-09-01T07:33:14.790Z,99063.46
2018-09-01T07:35:44.280Z,99059.97
2018-09-01T07:38:13.744Z,99066.25
2018-09-01T07:40:43.194Z,99067.19
2018-09-01T07:43:12.637Z,99070.05
2018-09-01T07:45:42.062Z,99075.58
2018-09-01T07:48:11.496Z,99082.41
2018-09-01T07:50:40.965Z,99073.08
2018-09-01T07:53:10.389Z,99082.50
2018-09-01T07:55:39.850Z,99081.08
2018-09-01T07:58:09.232Z,99082.36
2018-09-01T08:00:38.646Z,99081.59
2018-09-01T08:03:08.041Z,99086.27
2018-09-01T08:05:37.473Z,99096.88
2018-09-01T08:08:06.904Z,99100.05
2018-09-01T08:10:36.320Z,99099.50
2018-09-01T08:13:06.368Z,99100.08
2018-09-01T08:15:36.305Z,99102.67
2018-09-01T08:18:06.241Z,99097.98
2018-09-01T08:20:35.708Z,99099.70
2018-09-01T08:23:05.821Z,99100.39
2018-09-01T08:25:35.250Z,99097.38
2018-09-01T08:28:04.641Z,99099.03
2018-09-01T08:30:34.041Z,99095.85
2018-09-01T08:33:04.069Z,99099.22
2018-09-01T08:35:33.519Z,99097.68
2018-09-01T08:38:03.050Z,99101.98
2018-09-01T08:40:33.057Z,99104.50
2018-09-01T08:43:02.818Z,99108.40
2018-09-01T08:45:32.213Z,99107.41
2018-09-01T08:48:01.649Z,99105.33
2018-09-01T08:50:31.092Z,99114.81
2018-09-01T08:53:00.498Z,99123.83
2018-09-01T08:55:29.931Z,99124.87
2018-09-01T08:57:59.322Z,99123.13
2018-09-01T09:00:28.706Z,99123.00
2018-09-01T09:02:58.116Z,99125.25
2018-09-01T09:05:27.556Z,99121.23
2018-09-01T09:07:57.116Z,99127.44
2018-09-01T09:10:26.567Z,99126.38
2018-09-01T09:12:56.310Z,99130.27
2018-09-01T09:15:25.796Z,99123.73
2018-09-01T09:17:55.176Z,99123.34
2018-09-01T09:20:24.614Z,99119.53
2018-09-01T09:22:54.103Z,99119.78
2018-09-01T09:25:23.591Z,99118.63
2018-09-01T09:27:52.994Z,99118.77
2018-09-01T09:30:22.440Z,99114.56
2018-09-01T09:32:51.834Z,99122.02
2018-09-01T09:35:21.287Z,99121.98
2018-09-01T09:37:50.735Z,99126.47
2018-09-01T09:40:20.257Z,99133.27
2018-09-01T09:42:49.632Z,99128.64
2018-09-01T09:45:19.021Z,99127.63
2018-09-01T09:47:48.462Z,99134.02
2018-09-01T09:50:17.949Z,99134.13
2018-09-01T09:52:47.423Z,99134.77
2018-09-01T09:55:16.857Z,99135.50
2018-09-01T09:57:46.331Z,99131.55
2018-09-01T10:00:18.192Z,99130.54
2018-09-01T10:02:47.603Z,99120.94
2018-09-01T10:05:17.054Z,99122.78
2018-09-01T10:07:46.995Z,99122.38
2018-09-01T10:10:16.462Z,99123.62
2018-09-01T10:12:45.900Z,99120.58
2018-09-01T10:15:15.329Z,99122.69
2018-09-01T10:17:44.825Z,99121.88
2018-09-01T10:20:14.343Z,99120.47
2018-09-01T10:22:43.621Z,99116.92
2018-09-01T10:25:13.045Z,99117.55
2018-09-01T10:27:42.446Z,99105.66
2018-09-01T10:30:11.920Z,99109.76
2018-09-01T10:32:41.410Z,99100.70
2018-09-01T10:35:10.815Z,99098.59
2018-09-01T10:37:40.334Z,99094.81
2018-09-01T10:40:09.767Z,99087.70
2018-09-01T10:42:39.192Z,99081.17
2018-09-01T10:45:08.696Z,99073.65
2018-09-01T10:47:38.254Z,99071.81
2018-09-01T10:50:08.259Z,99066.73
2018-09-01T10:52:37.678Z,99066.33
2018-09-01T10:55:07.214Z,99061.86
2018-09-01T10:57:36.617Z,99067.14
2018-09-01T11:00:07.718Z,99065.31
2018-09-01T11:02:37.157Z,99054.42
2018-09-01T11:05:06.697Z,99054.82
2018-09-01T11:07:36.045Z,99055.74
2018-09-01T11:10:05.473Z,99053.00
2018-09-01T11:12:34.920Z,99052.09
2018-09-01T11:15:04.326Z,99049.45
2018-09-01T11:17:33.714Z,99046.99
2018-09-01T11:20:03.220Z,99052.19
2018-09-01T11:22:32.528Z,99048.64
2018-09-01T11:25:01.986Z,99046.68
2018-09-01T11:27:31.518Z,99049.23
2018-09-01T11:30:00.864Z,99047.50
2018-09-01T11:32:30.254Z,99048.72
2018-09-01T11:34:59.655Z,99038.55
2018-09-01T11:37:29.090Z,99042.19
2018-09-01T11:39:58.577Z,99046.70
2018-09-01T11:42:28.071Z,99048.12
2018-09-01T11:44:57.410Z,99055.95
2018-09-01T11:47:26.817Z,99052.14
2018-09-01T11:49:56.222Z,99035.13
2018-09-01T11:52:25.688Z,99032.84
2018-09-01T11:54:55.118Z,99032.06
2018-09-01T11:57:24.559Z,99031.44
2018-09-01T11:59:53.961Z,99035.29
2018-09-01T12:02:23.341Z,99044.25
2018-09-01T12:04:52.797Z,99045.27
2018-09-01T12:07:22.222Z,99041.30
2018-09-01T12:09:51.696Z,99035.45
2018-09-01T12:12:21.629Z,99030.16
2018-09-01T12:14:51.120Z,99032.45
2018-09-01T12:17:20.512Z,99022.75
2018-09-01T12:19:49.903Z,99028.12
2018-09-01T12:22:19.318Z,99031.66
2018-09-01T12:24:48.697Z,99031.66
2018-09-01T12:27:18.190Z,99031.97
2018-09-01T12:29:48.887Z,99028.61
2018-09-01T12:32:18.345Z,99029.73
2018-09-01T12:34:47.786Z,99018.59
2018-09-01T12:37:17.367Z,99025.87
2018-09-01T12:39:46.852Z,99027.97
2018-09-01T12:42:16.289Z,99025.63
2018-09-01T12:44:45.712Z,99026.95
2018-09-01T12:47:15.284Z,99030.72
2018-09-01T12:49:44.754Z,99028.09
2018-09-01T12:52:14.212Z,99021.72
2018-09-01T12:54:43.667Z,99028.88
2018-09-01T12:57:13.088Z,99021.60
2018-09-01T12:59:42.597Z,99028.91
2018-09-01T13:02:16.023Z,99025.65
2018-09-01T13:04:45.619Z,99027.21
2018-09-01T13:07:15.044Z,99029.33
2018-09-01T13:09:44.442Z,99025.21
2018-09-01T13:12:14.476Z,99026.91
2018-09-01T13:14:44.229Z,99021.17
2018-09-01T13:17:14.433Z,99017.20
2018-09-01T13:19:44.292Z,99016.34
2018-09-01T13:22:13.676Z,99016.92
2018-09-01T13:24:43.118Z,99024.17
2018-09-01T13:27:12.557Z,99018.56
2018-09-01T13:29:41.958Z,99009.14
2018-09-01T13:32:12.024Z,99006.18
2018-09-01T13:34:41.468Z,98996.64
2018-09-01T13:37:10.920Z,99003.81
2018-09-01T13:39:41.394Z,99009.63
2018-09-01T13:42:11.767Z,99012.65
2018-09-01T13:44:41.124Z,99017.37
2018-09-01T13:47:10.534Z,99020.98
2018-09-01T13:49:39.976Z,99019.86
2018-09-01T13:52:09.904Z,99024.45
2018-09-01T13:54:39.371Z,99013.08
2018-09-01T13:57:08.843Z,99022.31
2018-09-01T13:59:38.768Z,99019.22
2018-09-01T14:02:08.206Z,99020.09
2018-09-01T14:04:38.643Z,99012.73
2018-09-01T14:07:08.311Z,99006.80
2018-09-01T14:09:37.771Z,99009.23
2018-09-01T14:12:07.261Z,99009.44
2018-09-01T14:14:36.743Z,99011.86
2018-09-01T14:17:06.416Z,99016.02
2018-09-01T14:19:35.854Z,99007.51
2018-09-01T14:22:05.340Z,99013.13
2018-09-01T14:24:34.841Z,99014.75
2018-09-01T14:27:04.597Z,99016.38
2018-09-01T14:29:34.148Z,99019.40
2018-09-01T14:32:03.810Z,99017.13
2018-09-01T14:34:33.319Z,99016.31
2018-09-01T14:37:02.778Z,99016.31
2018-09-01T14:39:32.189Z,99019.06
2018-09-01T14:42:02.145Z,99029.09
2018-09-01T14:44:31.581Z,99016.94
2018-09-01T14:47:01.038Z,99010.14
2018-09-01T14:49:30.459Z,99015.52
2018-09-01T14:51:59.881Z,99021.58
2018-09-01T14:54:29.292Z,99015.88
2018-09-01T14:56:58.773Z,99016.63
2018-09-01T14:59:28.194Z,99011.69
2018-09-01T15:01:57.633Z,99006.50
2018-09-01T15:04:27.078Z,99012.55
2018-09-01T15:06:58.451Z,99013.59
2018-09-01T15:09:27.876Z,99013.59
2018-09-01T15:11:57.333Z,99012.14
2018-09-01T15:14:26.768Z,99009.32
2018-09-01T15:16:56.133Z,99014.33
2018-09-01T15:19:25.575Z,99004.23
2018-09-01T15:21:55.012Z,99007.02
2018-09-01T15:24:25.607Z,99004.70
2018-09-01T15:26:55.873Z,99005.00
2018-09-01T15:29:25.326Z,98997.13
2018-09-01T15:31:54.774Z,98998.09
2018-09-01T15:34:24.224Z,98992.27
2018-09-01T15:36:53.682Z,98994.31
2018-09-01T15:39:23.115Z,98996.86
2018-09-01T15:41:53.067Z,98996.52
2018-09-01T15:44:22.554Z,98998.52
2018-09-01T15:46:52.001Z,99004.25
2018-09-01T15:49:21.629Z,99004.06
2018-09-01T15:51:51.055Z,99001.92
2018-09-01T15:54:20.503Z,99012.91
2018-09-01T15:56:50.995Z,99011.30
2018-09-01T15:59:20.495Z,99005.30
2018-09-01T16:01:49.899Z,99008.67
2018-09-01T16:04:20.329Z,99008.53
2018-09-01T16:06:49.802Z,99007.77
2018-09-01T16:09:19.279Z,99004.34
2018-09-01T16:11:48.693Z,99006.48
2018-09-01T16:14:18.136Z,99009.86
2018-09-01T16:16:48.491Z,99004.95
2018-09-01T16:19:17.947Z,99008.06
2018-09-01T16:21:47.329Z,98995.92
2018-09-01T16:24:16.800Z,98999.59
2018-09-01T16:26:46.204Z,98996.28
2018-09-01T16:29:15.737Z,98999.86
2018-09-01T16:31:45.147Z,98997.52
2018-09-01T16:34:14.607Z,98999.37
2018-09-01T16:36:44.126Z,98998.91
2018-09-01T16:39:13.582Z,98998.82
2018-09-01T16:41:43.044Z,98997.08
2018-09-01T16:44:13.510Z,99000.92
2018-09-01T16:46:43.937Z,98993.56
2018-09-01T16:49:13.409Z,98998.47
2018-09-01T16:51:42.837Z,99009.13
2018-09-01T16:54:12.251Z,99005.58
2018-09-01T16:56:41.639Z,99006.30
2018-09-01T16:59:11.068Z,99001.32
2018-09-01T17:01:40.518Z,99000.66
2018-09-01T17:04:10.171Z,99001.47
2018-09-01T17:06:39.589Z,99004.97
2018-09-01T17:09:09.788Z,98999.44
2018-09-01T17:11:39.383Z,99006.00
2018-09-01T17:14:09.602Z,99007.71
2018-09-01T17:16:39.143Z,99008.44
2018-09-01T17:19:08.608Z,99005.66
2018-09-01T17:21:38.106Z,99014.64
2018-09-01T17:24:07.509Z,99011.92
2018-09-01T17:26:37.484Z,99016.79
2018-09-01T17:29:06.956Z,99015.73
2018-09-01T17:31:37.374Z,99017.94
2018-09-01T17:34:07.315Z,99013.58
2018-09-01T17:36:36.909Z,99021.86
2018-09-01T17:39:10.227Z,99023.75
2018-09-01T17:41:39.728Z,99024.05
2018-09-01T17:44:09.153Z,99022.23
2018-09-01T17:46:39.445Z,99027.50
2018-09-01T17:49:08.900Z,99028.06
2018-09-01T17:51:38.437Z,99024.64
2018-09-01T17:54:08.098Z,99023.53
2018-09-01T17:56:37.572Z,99025.33
2018-09-01T17:59:09.250Z,99029.03
2018-09-01T18:01:38.714Z,99029.80
2018-09-01T18:04:08.675Z,99029.84
2018-09-01T18:06:38.762Z,99025.50
2018-09-01T18:09:08.262Z,99027.37
2018-09-01T18:11:37.671Z,99029.64
2018-09-01T18:14:07.144Z,99028.46
2018-09-01T18:16:37.682Z,99029.91
2018-09-01T18:19:08.985Z,99027.88
2018-09-01T18:21:39.269Z,99031.52
2018-09-01T18:24:08.882Z,99029.48
2018-09-01T18:26:38.370Z,99038.25
2018-09-01T18:29:10.120Z,99041.00
2018-09-01T18:31:39.564Z,99042.25
2018-09-01T18:34:09.037Z,99043.49
2018-09-01T18:36:38.547Z,99049.47
2018-09-01T18:39:10.821Z,99051.30
2018-09-01T18:41:42.282Z,99057.50
2018-09-01T18:44:12.087Z,99059.14
2018-09-01T18:46:53.926Z,99065.42
2018-09-01T18:49:26.764Z,99064.09
2018-09-01T18:51:56.387Z,99066.83
2018-09-01T18:54:28.415Z,99064.99
2018-09-01T18:56:59.088Z,99073.70
2018-09-01T18:59:28.932Z,99068.37
2018-09-01T19:02:00.644Z,99074.14
2018-09-01T19:04:41.277Z,99067.73
2018-09-01T19:07:20.835Z,99068.82
2018-09-01T19:09:52.631Z,99076.64
2018-09-01T19:12:25.914Z,99074.38
2018-09-01T19:14:55.730Z,99078.28
2018-09-01T19:17:26.381Z,99081.92
2018-09-01T19:19:55.953Z,99079.34
2018-09-01T19:22:25.898Z,99081.34
2018-09-01T19:24:55.453Z,99084.34
2018-09-01T19:27:38.191Z,99079.85
2018-09-01T19:30:08.300Z,99086.52
2018-09-01T19:32:38.021Z,99087.80
2018-09-01T19:35:08.584Z,99091.78
2018-09-01T19:37:43.248Z,99101.75
2018-09-01T19:40:13.015Z,99099.62
2018-09-01T19:42:42.795Z,99098.98
2018-09-01T19:45:12.749Z,99104.91
2018-09-01T19:47:48.862Z,99103.91
2018-09-01T19:50:22.222Z,99097.00
2018-09-01T19:52:52.367Z,99097.84
2018-09-01T19:55:33.257Z,99104.31
2018-09-01T19:58:03.124Z,99108.89
2018-09-01T20:00:33.557Z,99100.66
2018-09-01T20:03:04.975Z,99103.25
2018-09-01T20:05:34.712Z,99109.72
2018-09-01T20:08:05.694Z,99100.23
2018-09-01T20:10:35.562Z,99106.97
2018-09-01T20:13:05.452Z,99106.27
2018-09-01T20:15:36.136Z,99105.77
2018-09-01T20:18:06.686Z,99110.09
2018-09-01T20:20:36.246Z,99112.84
2018-09-01T20:23:06.322Z,99112.77
2018-09-01T20:25:36.015Z,99108.76
2018-09-01T20:28:06.657Z,99108.86
2018-09-01T20:30:36.398Z,99113.73
2018-09-01T20:33:06.049Z,99121.95
2018-09-01T20:35:41.187Z,99118.99
2018-09-01T20:38:11.314Z,99110.36
2018-09-01T20:40:40.874Z,99108.12
2018-09-01T20:43:10.492Z,99102.08
2018-09-01T20:45:51.705Z,99098.67
2018-09-01T20:48:24.171Z,99106.81
2018-09-01T20:50:56.553Z,99099.63
2018-09-01T20:53:35.078Z,99095.68
2018-09-01T20:56:16.903Z,99090.34
2018-09-01T20:58:46.431Z,99096.02
2018-09-01T21:01:15.865Z,99091.30
2018-09-01T21:03:45.982Z,99097.38
2018-09-01T21:06:15.979Z,99094.45
2018-09-01T21:08:45.394Z,99101.69
2018-09-01T21:11:14.852Z,99099.05
2018-09-01T21:13:44.213Z,99101.36
2018-09-01T21:16:15.101Z,99098.94
2018-09-01T21:18:44.616Z,99099.88
2018-09-01T21:21:14.085Z,99107.60
2018-09-01T21:23:43.541Z,99103.56
2018-09-01T21:26:13.041Z,99107.88
2018-09-01T21:28:42.430Z,99105.28
2018-09-01T21:31:11.893Z,99106.11
2018-09-01T21:33:41.306Z,99113.27
2018-09-01T21:36:10.770Z,99109.53
2018-09-01T21:38:40.212Z,99117.31
2018-09-01T21:41:09.634Z,99114.06
2018-09-01T21:43:39.109Z,99111.96
2018-09-01T21:46:09.532Z,99116.75
2018-09-01T21:48:39.950Z,99114.81
2018-09-01T21:51:09.522Z,99119.22
2018-09-01T21:53:38.899Z,99121.55
2018-09-01T21:56:08.413Z,99117.37
2018-09-01T21:58:38.587Z,99112.28
2018-09-01T22:01:13.159Z,99107.39
2018-09-01T22:03:47.765Z,99112.17
2018-09-01T22:06:18.454Z,99103.34
2018-09-01T22:08:48.223Z,99099.59
2018-09-01T22:11:17.800Z,99103.20
2018-09-01T22:13:47.221Z,99101.09
2018-09-01T22:16:16.728Z,99100.94
2018-09-01T22:18:46.178Z,99105.72
2018-09-01T22:21:15.609Z,99105.09
2018-09-01T22:23:45.089Z,99103.28
2018-09-01T22:26:14.540Z,99106.75
2018-09-01T22:28:43.974Z,99105.25
2018-09-01T22:31:13.485Z,99103.28
2018-09-01T22:33:42.962Z,99109.41
2018-09-01T22:36:12.401Z,99102.56
2018-09-01T22:38:41.785Z,99100.45
2018-09-01T22:41:11.813Z,99102.47
2018-09-01T22:43:41.189Z,99098.05
2018-09-01T22:46:10.710Z,99099.84
2018-09-01T22:48:40.141Z,99107.27
2018-09-01T22:51:09.562Z,99103.53
2018-09-01T22:53:39.002Z,99112.42
2018-09-01T22:56:08.446Z,99108.67
2018-09-01T22:58:37.931Z,99104.42
2018-09-01T23:01:07.347Z,99113.32
2018-09-01T23:03:36.790Z,99107.55
2018-09-01T23:06:06.254Z,99110.17
2018-09-01T23:08:35.690Z,99108.55
2018-09-01T23:11:05.516Z,99102.84
2018-09-01T23:13:35.065Z,99105.97
2018-09-01T23:16:04.568Z,99105.16
2018-09-01T23:18:34.117Z,99106.81
2018-09-01T23:21:03.559Z,99098.45
2018-09-01T23:23:33.013Z,99103.09
2018-09-01T23:26:02.420Z,99098.33
2018-09-01T23:28:31.885Z,99097.84
2018-09-01T23:31:01.311Z,99098.70
2018-09-01T23:33:31.582Z,99097.54
2018-09-01T23:36:01.040Z,99092.48
2018-09-01T23:38:30.487Z,99097.89
2018-09-01T23:40:59.939Z,99094.29
2018-09-01T23:43:29.362Z,99104.09
2018-09-01T23:45:58.749Z,99108.70
2018-09-01T23:48:28.161Z,99103.47
2018-09-01T23:50:57.593Z,99103.81
2018-09-01T23:53:26.998Z,99107.45
2018-09-01T23:55:56.530Z,99100.57
2018-09-01T23:58:25.987Z,99103.84
